sensor_id;sensor_type;location;lat;lon;timestamp;P1;durP1;ratioP1;P2;durP2;ratioP2
7110;SDS011;3597;42.650;23.386;2023-04-25T00:01:44;2.03;;;1.93;;
7110;SDS011;3597;42.650;23.386;2023-04-25T00:04:10;2.10;;;2.10;;
7110;SDS011;3597;42.650;23.386;2023-04-25T00:06:37;2.00;;;1.97;;
7110;SDS011;3597;42.650;23.386;2023-04-25T00:09:06;2.00;;;2.00;;
7110;SDS011;3597;42.650;23.386;2023-04-25T00:11:35;1.67;;;1.67;;
7110;SDS011;3597;42.650;23.386;2023-04-25T00:14:01;1.93;;;1.93;;
7110;SDS011;3597;42.650;23.386;2023-04-25T00:16:28;2.23;;;2.23;;
7110;SDS011;3597;42.650;23.386;2023-04-25T00:18:54;2.13;;;2.13;;
7110;SDS011;3597;42.650;23.386;2023-04-25T00:21:20;2.27;;;2.23;;
7110;SDS011;3597;42.650;23.386;2023-04-25T00:23:46;1.73;;;1.73;;
7110;SDS011;3597;42.650;23.386;2023-04-25T00:26:11;2.13;;;2.13;;
7110;SDS011;3597;42.650;23.386;2023-04-25T00:28:37;1.73;;;1.73;;
7110;SDS011;3597;42.650;23.386;2023-04-25T00:31:03;1.97;;;1.97;;
7110;SDS011;3597;42.650;23.386;2023-04-25T00:33:29;1.60;;;1.60;;
7110;SDS011;3597;42.650;23.386;2023-04-25T00:35:55;1.70;;;1.70;;
7110;SDS011;3597;42.650;23.386;2023-04-25T00:38:20;1.80;;;1.80;;
7110;SDS011;3597;42.650;23.386;2023-04-25T00:40:46;1.60;;;1.60;;
7110;SDS011;3597;42.650;23.386;2023-04-25T00:43:11;1.90;;;1.80;;
7110;SDS011;3597;42.650;23.386;2023-04-25T00:45:37;1.73;;;1.73;;
7110;SDS011;3597;42.650;23.386;2023-04-25T00:48:04;1.83;;;1.70;;
7110;SDS011;3597;42.650;23.386;2023-04-25T00:50:29;1.43;;;1.43;;
7110;SDS011;3597;42.650;23.386;2023-04-25T00:52:55;1.30;;;1.30;;
7110;SDS011;3597;42.650;23.386;2023-04-25T00:55:20;1.40;;;1.40;;
7110;SDS011;3597;42.650;23.386;2023-04-25T00:57:46;1.50;;;1.50;;
7110;SDS011;3597;42.650;23.386;2023-04-25T01:00:12;1.57;;;1.57;;
7110;SDS011;3597;42.650;23.386;2023-04-25T01:02:39;1.40;;;1.40;;
7110;SDS011;3597;42.650;23.386;2023-04-25T01:05:05;1.50;;;1.50;;
7110;SDS011;3597;42.650;23.386;2023-04-25T01:07:30;1.50;;;1.50;;
7110;SDS011;3597;42.650;23.386;2023-04-25T01:09:56;1.47;;;1.47;;
7110;SDS011;3597;42.650;23.386;2023-04-25T01:12:22;1.30;;;1.30;;
7110;SDS011;3597;42.650;23.386;2023-04-25T01:14:48;1.70;;;1.70;;
7110;SDS011;3597;42.650;23.386;2023-04-25T01:17:13;1.40;;;1.40;;
7110;SDS011;3597;42.650;23.386;2023-04-25T01:19:40;1.30;;;1.30;;
7110;SDS011;3597;42.650;23.386;2023-04-25T01:22:05;1.70;;;1.70;;
7110;SDS011;3597;42.650;23.386;2023-04-25T01:24:31;1.50;;;1.50;;
7110;SDS011;3597;42.650;23.386;2023-04-25T01:26:57;1.27;;;1.27;;
7110;SDS011;3597;42.650;23.386;2023-04-25T01:29:23;1.30;;;1.30;;
7110;SDS011;3597;42.650;23.386;2023-04-25T01:31:49;1.13;;;1.13;;
7110;SDS011;3597;42.650;23.386;2023-04-25T01:34:17;1.50;;;1.50;;
7110;SDS011;3597;42.650;23.386;2023-04-25T01:36:42;1.17;;;1.17;;
7110;SDS011;3597;42.650;23.386;2023-04-25T01:39:08;1.30;;;1.30;;
7110;SDS011;3597;42.650;23.386;2023-04-25T01:41:34;1.20;;;1.20;;
7110;SDS011;3597;42.650;23.386;2023-04-25T01:44:00;1.40;;;1.30;;
7110;SDS011;3597;42.650;23.386;2023-04-25T01:46:26;1.10;;;1.10;;
7110;SDS011;3597;42.650;23.386;2023-04-25T01:48:52;1.57;;;1.57;;
7110;SDS011;3597;42.650;23.386;2023-04-25T01:51:17;1.10;;;1.10;;
7110;SDS011;3597;42.650;23.386;2023-04-25T01:53:42;1.20;;;1.20;;
7110;SDS011;3597;42.650;23.386;2023-04-25T01:56:08;1.30;;;1.30;;
7110;SDS011;3597;42.650;23.386;2023-04-25T01:58:33;1.20;;;1.20;;
7110;SDS011;3597;42.650;23.386;2023-04-25T02:00:59;1.27;;;1.27;;
7110;SDS011;3597;42.650;23.386;2023-04-25T02:03:24;1.30;;;1.30;;
7110;SDS011;3597;42.650;23.386;2023-04-25T02:05:49;1.60;;;1.50;;
7110;SDS011;3597;42.650;23.386;2023-04-25T02:08:16;4.37;;;1.47;;
7110;SDS011;3597;42.650;23.386;2023-04-25T02:10:41;1.20;;;1.20;;
7110;SDS011;3597;42.650;23.386;2023-04-25T02:13:07;1.50;;;1.50;;
7110;SDS011;3597;42.650;23.386;2023-04-25T02:15:32;1.67;;;1.67;;
7110;SDS011;3597;42.650;23.386;2023-04-25T02:17:57;1.43;;;1.17;;
7110;SDS011;3597;42.650;23.386;2023-04-25T02:20:25;1.50;;;1.50;;
7110;SDS011;3597;42.650;23.386;2023-04-25T02:22:51;1.47;;;1.47;;
7110;SDS011;3597;42.650;23.386;2023-04-25T02:25:16;1.63;;;1.63;;
7110;SDS011;3597;42.650;23.386;2023-04-25T02:27:43;1.40;;;1.40;;
7110;SDS011;3597;42.650;23.386;2023-04-25T02:30:08;1.30;;;1.30;;
7110;SDS011;3597;42.650;23.386;2023-04-25T02:32:34;1.40;;;1.40;;
7110;SDS011;3597;42.650;23.386;2023-04-25T02:35:00;1.30;;;1.30;;
7110;SDS011;3597;42.650;23.386;2023-04-25T02:37:29;1.77;;;1.77;;
7110;SDS011;3597;42.650;23.386;2023-04-25T02:39:55;1.30;;;1.30;;
7110;SDS011;3597;42.650;23.386;2023-04-25T02:42:20;1.40;;;1.40;;
7110;SDS011;3597;42.650;23.386;2023-04-25T02:44:45;1.23;;;1.23;;
7110;SDS011;3597;42.650;23.386;2023-04-25T02:47:11;1.50;;;1.50;;
7110;SDS011;3597;42.650;23.386;2023-04-25T02:49:36;1.30;;;1.30;;
7110;SDS011;3597;42.650;23.386;2023-04-25T02:52:01;1.50;;;1.50;;
7110;SDS011;3597;42.650;23.386;2023-04-25T02:54:27;1.50;;;1.50;;
7110;SDS011;3597;42.650;23.386;2023-04-25T02:56:52;1.30;;;1.30;;
7110;SDS011;3597;42.650;23.386;2023-04-25T02:59:18;1.30;;;1.30;;
7110;SDS011;3597;42.650;23.386;2023-04-25T03:02:02;1.50;;;1.50;;
7110;SDS011;3597;42.650;23.386;2023-04-25T03:04:27;1.40;;;1.40;;
7110;SDS011;3597;42.650;23.386;2023-04-25T03:06:53;1.60;;;1.60;;
7110;SDS011;3597;42.650;23.386;2023-04-25T03:09:18;1.40;;;1.40;;
7110;SDS011;3597;42.650;23.386;2023-04-25T03:11:44;1.97;;;1.93;;
7110;SDS011;3597;42.650;23.386;2023-04-25T03:14:10;1.63;;;1.63;;
7110;SDS011;3597;42.650;23.386;2023-04-25T03:16:36;1.70;;;1.70;;
7110;SDS011;3597;42.650;23.386;2023-04-25T03:19:02;1.40;;;1.40;;
7110;SDS011;3597;42.650;23.386;2023-04-25T03:21:27;1.40;;;1.40;;
7110;SDS011;3597;42.650;23.386;2023-04-25T03:23:53;2.00;;;2.00;;
7110;SDS011;3597;42.650;23.386;2023-04-25T03:26:18;1.70;;;1.70;;
7110;SDS011;3597;42.650;23.386;2023-04-25T03:28:44;1.60;;;1.60;;
7110;SDS011;3597;42.650;23.386;2023-04-25T03:31:09;1.90;;;1.90;;
7110;SDS011;3597;42.650;23.386;2023-04-25T03:33:34;1.63;;;1.63;;
7110;SDS011;3597;42.650;23.386;2023-04-25T03:36:00;1.90;;;1.90;;
7110;SDS011;3597;42.650;23.386;2023-04-25T03:38:25;2.00;;;2.00;;
7110;SDS011;3597;42.650;23.386;2023-04-25T03:40:51;1.60;;;1.60;;
7110;SDS011;3597;42.650;23.386;2023-04-25T03:43:16;1.97;;;1.97;;
7110;SDS011;3597;42.650;23.386;2023-04-25T03:45:42;1.90;;;1.80;;
7110;SDS011;3597;42.650;23.386;2023-04-25T03:48:07;2.50;;;2.50;;
7110;SDS011;3597;42.650;23.386;2023-04-25T03:50:32;2.10;;;2.10;;
7110;SDS011;3597;42.650;23.386;2023-04-25T03:52:58;2.10;;;2.10;;
7110;SDS011;3597;42.650;23.386;2023-04-25T03:55:23;2.23;;;2.13;;
7110;SDS011;3597;42.650;23.386;2023-04-25T03:57:49;2.40;;;2.40;;
7110;SDS011;3597;42.650;23.386;2023-04-25T04:00:14;2.43;;;2.33;;
7110;SDS011;3597;42.650;23.386;2023-04-25T04:02:40;1.47;;;1.47;;
7110;SDS011;3597;42.650;23.386;2023-04-25T04:05:05;1.87;;;1.77;;
7110;SDS011;3597;42.650;23.386;2023-04-25T04:07:31;2.00;;;2.00;;
7110;SDS011;3597;42.650;23.386;2023-04-25T04:09:58;2.30;;;2.30;;
7110;SDS011;3597;42.650;23.386;2023-04-25T04:12:23;2.27;;;2.17;;
7110;SDS011;3597;42.650;23.386;2023-04-25T04:14:49;2.67;;;2.43;;
7110;SDS011;3597;42.650;23.386;2023-04-25T04:17:14;2.47;;;2.37;;
7110;SDS011;3597;42.650;23.386;2023-04-25T04:19:39;2.60;;;2.50;;
7110;SDS011;3597;42.650;23.386;2023-04-25T04:22:04;3.13;;;3.03;;
7110;SDS011;3597;42.650;23.386;2023-04-25T04:24:30;2.20;;;2.20;;
7110;SDS011;3597;42.650;23.386;2023-04-25T04:26:55;2.20;;;2.20;;
7110;SDS011;3597;42.650;23.386;2023-04-25T04:29:21;2.13;;;2.13;;
7110;SDS011;3597;42.650;23.386;2023-04-25T04:31:48;1.97;;;1.97;;
7110;SDS011;3597;42.650;23.386;2023-04-25T04:34:14;2.00;;;1.97;;
7110;SDS011;3597;42.650;23.386;2023-04-25T04:36:41;2.23;;;2.13;;
7110;SDS011;3597;42.650;23.386;2023-04-25T04:39:06;2.67;;;2.67;;
7110;SDS011;3597;42.650;23.386;2023-04-25T04:41:34;2.57;;;2.47;;
7110;SDS011;3597;42.650;23.386;2023-04-25T04:43:59;2.47;;;2.47;;
7110;SDS011;3597;42.650;23.386;2023-04-25T04:46:26;3.30;;;3.20;;
7110;SDS011;3597;42.650;23.386;2023-04-25T04:48:52;3.00;;;2.90;;
7110;SDS011;3597;42.650;23.386;2023-04-25T04:51:18;2.67;;;2.57;;
7110;SDS011;3597;42.650;23.386;2023-04-25T04:53:43;2.27;;;2.27;;
7110;SDS011;3597;42.650;23.386;2023-04-25T04:56:09;2.70;;;2.60;;
7110;SDS011;3597;42.650;23.386;2023-04-25T04:58:34;1.90;;;1.80;;
7110;SDS011;3597;42.650;23.386;2023-04-25T05:01:01;2.27;;;2.27;;
7110;SDS011;3597;42.650;23.386;2023-04-25T05:03:26;2.60;;;2.57;;
7110;SDS011;3597;42.650;23.386;2023-04-25T05:05:52;2.40;;;2.40;;
7110;SDS011;3597;42.650;23.386;2023-04-25T05:08:17;2.10;;;2.10;;
7110;SDS011;3597;42.650;23.386;2023-04-25T05:10:42;1.93;;;1.93;;
7110;SDS011;3597;42.650;23.386;2023-04-25T05:13:08;2.23;;;2.23;;
7110;SDS011;3597;42.650;23.386;2023-04-25T05:15:33;1.93;;;1.93;;
7110;SDS011;3597;42.650;23.386;2023-04-25T05:17:58;2.57;;;2.57;;
7110;SDS011;3597;42.650;23.386;2023-04-25T05:20:24;2.17;;;2.17;;
7110;SDS011;3597;42.650;23.386;2023-04-25T05:22:49;2.30;;;2.30;;
7110;SDS011;3597;42.650;23.386;2023-04-25T05:25:15;2.37;;;2.37;;
7110;SDS011;3597;42.650;23.386;2023-04-25T05:27:40;2.00;;;2.00;;
7110;SDS011;3597;42.650;23.386;2023-04-25T05:30:06;2.37;;;2.37;;
7110;SDS011;3597;42.650;23.386;2023-04-25T05:32:32;2.40;;;2.40;;
7110;SDS011;3597;42.650;23.386;2023-04-25T05:34:57;2.67;;;2.57;;
7110;SDS011;3597;42.650;23.386;2023-04-25T05:37:22;2.10;;;2.10;;
7110;SDS011;3597;42.650;23.386;2023-04-25T05:39:48;2.63;;;2.60;;
7110;SDS011;3597;42.650;23.386;2023-04-25T05:42:13;1.97;;;1.97;;
7110;SDS011;3597;42.650;23.386;2023-04-25T05:44:38;2.30;;;2.30;;
7110;SDS011;3597;42.650;23.386;2023-04-25T05:47:04;2.50;;;2.40;;
7110;SDS011;3597;42.650;23.386;2023-04-25T05:49:30;2.50;;;2.50;;
7110;SDS011;3597;42.650;23.386;2023-04-25T05:51:55;2.50;;;2.50;;
7110;SDS011;3597;42.650;23.386;2023-04-25T05:54:20;2.10;;;2.10;;
7110;SDS011;3597;42.650;23.386;2023-04-25T05:56:46;2.23;;;2.13;;
7110;SDS011;3597;42.650;23.386;2023-04-25T05:59:11;2.30;;;2.30;;
7110;SDS011;3597;42.650;23.386;2023-04-25T06:01:36;2.33;;;2.33;;
7110;SDS011;3597;42.650;23.386;2023-04-25T06:04:02;2.37;;;2.37;;
7110;SDS011;3597;42.650;23.386;2023-04-25T06:06:27;1.87;;;1.87;;
7110;SDS011;3597;42.650;23.386;2023-04-25T06:08:52;2.23;;;2.23;;
7110;SDS011;3597;42.650;23.386;2023-04-25T06:11:18;2.37;;;2.37;;
7110;SDS011;3597;42.650;23.386;2023-04-25T06:13:43;2.23;;;2.13;;
7110;SDS011;3597;42.650;23.386;2023-04-25T06:16:10;2.37;;;2.20;;
7110;SDS011;3597;42.650;23.386;2023-04-25T06:18:36;2.83;;;2.73;;
7110;SDS011;3597;42.650;23.386;2023-04-25T06:21:01;2.23;;;2.23;;
7110;SDS011;3597;42.650;23.386;2023-04-25T06:23:27;2.80;;;2.80;;
7110;SDS011;3597;42.650;23.386;2023-04-25T06:25:52;3.30;;;3.30;;
7110;SDS011;3597;42.650;23.386;2023-04-25T06:28:18;2.80;;;2.80;;
7110;SDS011;3597;42.650;23.386;2023-04-25T06:30:44;3.27;;;3.20;;
7110;SDS011;3597;42.650;23.386;2023-04-25T06:33:09;2.73;;;2.63;;
7110;SDS011;3597;42.650;23.386;2023-04-25T06:35:34;2.50;;;2.50;;
7110;SDS011;3597;42.650;23.386;2023-04-25T06:38:00;2.27;;;2.23;;
7110;SDS011;3597;42.650;23.386;2023-04-25T06:40:25;2.27;;;2.17;;
7110;SDS011;3597;42.650;23.386;2023-04-25T06:42:51;2.23;;;2.13;;
7110;SDS011;3597;42.650;23.386;2023-04-25T06:45:16;2.13;;;2.13;;
7110;SDS011;3597;42.650;23.386;2023-04-25T06:47:41;1.93;;;1.93;;
7110;SDS011;3597;42.650;23.386;2023-04-25T06:50:07;2.37;;;2.27;;
7110;SDS011;3597;42.650;23.386;2023-04-25T06:52:33;2.10;;;2.10;;
7110;SDS011;3597;42.650;23.386;2023-04-25T06:54:58;2.23;;;1.97;;
7110;SDS011;3597;42.650;23.386;2023-04-25T06:57:24;1.80;;;1.80;;
7110;SDS011;3597;42.650;23.386;2023-04-25T06:59:49;1.83;;;1.83;;
7110;SDS011;3597;42.650;23.386;2023-04-25T07:02:14;1.80;;;1.80;;
7110;SDS011;3597;42.650;23.386;2023-04-25T07:04:40;2.10;;;2.10;;
7110;SDS011;3597;42.650;23.386;2023-04-25T07:07:05;1.53;;;1.53;;
7110;SDS011;3597;42.650;23.386;2023-04-25T07:09:30;1.70;;;1.70;;
7110;SDS011;3597;42.650;23.386;2023-04-25T07:11:58;1.90;;;1.90;;
7110;SDS011;3597;42.650;23.386;2023-04-25T07:14:24;1.70;;;1.70;;
7110;SDS011;3597;42.650;23.386;2023-04-25T07:16:50;1.90;;;1.90;;
7110;SDS011;3597;42.650;23.386;2023-04-25T07:19:15;1.53;;;1.53;;
7110;SDS011;3597;42.650;23.386;2023-04-25T07:21:41;2.87;;;1.80;;
7110;SDS011;3597;42.650;23.386;2023-04-25T07:24:06;1.73;;;1.73;;
7110;SDS011;3597;42.650;23.386;2023-04-25T07:26:31;2.13;;;2.10;;
7110;SDS011;3597;42.650;23.386;2023-04-25T07:28:57;2.17;;;2.07;;
7110;SDS011;3597;42.650;23.386;2023-04-25T07:31:22;1.83;;;1.83;;
7110;SDS011;3597;42.650;23.386;2023-04-25T07:33:48;1.60;;;1.60;;
7110;SDS011;3597;42.650;23.386;2023-04-25T07:36:13;2.50;;;2.50;;
7110;SDS011;3597;42.650;23.386;2023-04-25T07:38:40;1.80;;;1.70;;
7110;SDS011;3597;42.650;23.386;2023-04-25T07:41:06;1.90;;;1.67;;
7110;SDS011;3597;42.650;23.386;2023-04-25T07:43:31;2.00;;;2.00;;
7110;SDS011;3597;42.650;23.386;2023-04-25T07:45:57;1.80;;;1.80;;
7110;SDS011;3597;42.650;23.386;2023-04-25T07:48:22;1.60;;;1.60;;
7110;SDS011;3597;42.650;23.386;2023-04-25T07:50:47;2.00;;;2.00;;
7110;SDS011;3597;42.650;23.386;2023-04-25T07:53:13;2.10;;;2.00;;
7110;SDS011;3597;42.650;23.386;2023-04-25T07:55:39;1.67;;;1.67;;
7110;SDS011;3597;42.650;23.386;2023-04-25T07:58:05;2.17;;;2.17;;
7110;SDS011;3597;42.650;23.386;2023-04-25T08:00:31;1.80;;;1.80;;
7110;SDS011;3597;42.650;23.386;2023-04-25T08:02:57;1.93;;;1.93;;
7110;SDS011;3597;42.650;23.386;2023-04-25T08:05:22;2.37;;;2.37;;
7110;SDS011;3597;42.650;23.386;2023-04-25T08:07:47;2.33;;;2.30;;
7110;SDS011;3597;42.650;23.386;2023-04-25T08:10:13;1.90;;;1.90;;
7110;SDS011;3597;42.650;23.386;2023-04-25T08:12:38;1.90;;;1.90;;
7110;SDS011;3597;42.650;23.386;2023-04-25T08:15:04;2.97;;;2.93;;
7110;SDS011;3597;42.650;23.386;2023-04-25T08:17:30;2.50;;;2.50;;
7110;SDS011;3597;42.650;23.386;2023-04-25T08:19:55;2.30;;;2.30;;
7110;SDS011;3597;42.650;23.386;2023-04-25T08:22:21;3.83;;;2.50;;
7110;SDS011;3597;42.650;23.386;2023-04-25T08:24:47;1.80;;;1.80;;
7110;SDS011;3597;42.650;23.386;2023-04-25T08:27:12;4.77;;;2.23;;
7110;SDS011;3597;42.650;23.386;2023-04-25T08:29:38;1.97;;;1.87;;
7110;SDS011;3597;42.650;23.386;2023-04-25T08:32:03;1.90;;;1.90;;
7110;SDS011;3597;42.650;23.386;2023-04-25T08:34:29;2.00;;;2.00;;
7110;SDS011;3597;42.650;23.386;2023-04-25T08:36:54;3.20;;;3.10;;
7110;SDS011;3597;42.650;23.386;2023-04-25T08:39:19;2.23;;;2.13;;
7110;SDS011;3597;42.650;23.386;2023-04-25T08:41:45;2.57;;;2.57;;
7110;SDS011;3597;42.650;23.386;2023-04-25T08:44:11;2.13;;;2.13;;
7110;SDS011;3597;42.650;23.386;2023-04-25T08:46:40;2.70;;;2.70;;
7110;SDS011;3597;42.650;23.386;2023-04-25T08:49:06;2.50;;;2.50;;
7110;SDS011;3597;42.650;23.386;2023-04-25T08:51:32;2.37;;;2.30;;
7110;SDS011;3597;42.650;23.386;2023-04-25T08:54:00;2.50;;;2.50;;
7110;SDS011;3597;42.650;23.386;2023-04-25T08:56:35;1.80;;;1.80;;
7110;SDS011;3597;42.650;23.386;2023-04-25T08:59:01;2.70;;;2.70;;
7110;SDS011;3597;42.650;23.386;2023-04-25T09:01:27;2.00;;;2.00;;
7110;SDS011;3597;42.650;23.386;2023-04-25T09:03:53;1.80;;;1.80;;
7110;SDS011;3597;42.650;23.386;2023-04-25T09:06:19;2.00;;;2.00;;
7110;SDS011;3597;42.650;23.386;2023-04-25T09:08:44;3.00;;;3.00;;
7110;SDS011;3597;42.650;23.386;2023-04-25T09:11:09;2.53;;;2.53;;
7110;SDS011;3597;42.650;23.386;2023-04-25T09:13:35;2.80;;;2.70;;
7110;SDS011;3597;42.650;23.386;2023-04-25T09:16:00;2.10;;;2.10;;
7110;SDS011;3597;42.650;23.386;2023-04-25T09:20:56;2.40;;;2.30;;
7110;SDS011;3597;42.650;23.386;2023-04-25T09:23:23;2.97;;;2.87;;
7110;SDS011;3597;42.650;23.386;2023-04-25T09:25:49;2.47;;;2.47;;
7110;SDS011;3597;42.650;23.386;2023-04-25T09:28:15;3.43;;;3.23;;
7110;SDS011;3597;42.650;23.386;2023-04-25T09:30:41;2.30;;;2.30;;
7110;SDS011;3597;42.650;23.386;2023-04-25T09:33:09;2.50;;;2.50;;
7110;SDS011;3597;42.650;23.386;2023-04-25T09:35:39;2.53;;;2.53;;
7110;SDS011;3597;42.650;23.386;2023-04-25T09:43:22;2.60;;;2.60;;
7110;SDS011;3597;42.650;23.386;2023-04-25T09:45:48;2.50;;;2.50;;
7110;SDS011;3597;42.650;23.386;2023-04-25T09:48:18;2.17;;;2.13;;
7110;SDS011;3597;42.650;23.386;2023-04-25T09:50:44;2.30;;;2.30;;
7110;SDS011;3597;42.650;23.386;2023-04-25T09:53:10;2.20;;;2.00;;
7110;SDS011;3597;42.650;23.386;2023-04-25T09:55:36;1.70;;;1.70;;
7110;SDS011;3597;42.650;23.386;2023-04-25T09:58:05;1.73;;;1.73;;
7110;SDS011;3597;42.650;23.386;2023-04-25T10:00:32;1.60;;;1.60;;
7110;SDS011;3597;42.650;23.386;2023-04-25T10:02:59;2.00;;;2.00;;
7110;SDS011;3597;42.650;23.386;2023-04-25T10:05:27;2.10;;;2.10;;
7110;SDS011;3597;42.650;23.386;2023-04-25T10:07:53;2.00;;;2.00;;
7110;SDS011;3597;42.650;23.386;2023-04-25T10:10:19;2.10;;;2.10;;
7110;SDS011;3597;42.650;23.386;2023-04-25T10:12:44;1.90;;;1.90;;
7110;SDS011;3597;42.650;23.386;2023-04-25T10:15:10;2.73;;;2.73;;
7110;SDS011;3597;42.650;23.386;2023-04-25T10:17:36;1.87;;;1.87;;
7110;SDS011;3597;42.650;23.386;2023-04-25T10:20:04;2.17;;;2.17;;
7110;SDS011;3597;42.650;23.386;2023-04-25T10:22:45;3.10;;;3.00;;
7110;SDS011;3597;42.650;23.386;2023-04-25T10:25:12;2.00;;;2.00;;
7110;SDS011;3597;42.650;23.386;2023-04-25T10:27:38;2.57;;;2.50;;
7110;SDS011;3597;42.650;23.386;2023-04-25T10:30:05;1.77;;;1.77;;
7110;SDS011;3597;42.650;23.386;2023-04-25T10:32:35;1.40;;;1.40;;
7110;SDS011;3597;42.650;23.386;2023-04-25T10:35:10;1.90;;;1.90;;
7110;SDS011;3597;42.650;23.386;2023-04-25T10:37:37;2.10;;;2.10;;
7110;SDS011;3597;42.650;23.386;2023-04-25T10:40:09;1.87;;;1.87;;
7110;SDS011;3597;42.650;23.386;2023-04-25T10:42:35;1.77;;;1.77;;
7110;SDS011;3597;42.650;23.386;2023-04-25T10:45:06;1.50;;;1.50;;
7110;SDS011;3597;42.650;23.386;2023-04-25T10:47:35;2.00;;;1.90;;
7110;SDS011;3597;42.650;23.386;2023-04-25T10:50:08;1.80;;;1.80;;
7110;SDS011;3597;42.650;23.386;2023-04-25T10:52:33;1.70;;;1.70;;
7110;SDS011;3597;42.650;23.386;2023-04-25T10:54:59;2.17;;;2.17;;
7110;SDS011;3597;42.650;23.386;2023-04-25T10:57:38;2.20;;;2.00;;
7110;SDS011;3597;42.650;23.386;2023-04-25T11:02:30;1.90;;;1.90;;
7110;SDS011;3597;42.650;23.386;2023-04-25T11:04:56;2.00;;;1.90;;
7110;SDS011;3597;42.650;23.386;2023-04-25T11:10:01;1.60;;;1.60;;
7110;SDS011;3597;42.650;23.386;2023-04-25T11:12:29;1.70;;;1.70;;
7110;SDS011;3597;42.650;23.386;2023-04-25T11:14:59;1.60;;;1.60;;
7110;SDS011;3597;42.650;23.386;2023-04-25T11:17:26;2.00;;;2.00;;
7110;SDS011;3597;42.650;23.386;2023-04-25T11:19:51;3.53;;;3.37;;
7110;SDS011;3597;42.650;23.386;2023-04-25T11:22:16;2.30;;;2.30;;
7110;SDS011;3597;42.650;23.386;2023-04-25T11:24:42;3.20;;;3.20;;
7110;SDS011;3597;42.650;23.386;2023-04-25T11:27:07;3.37;;;3.37;;
7110;SDS011;3597;42.650;23.386;2023-04-25T11:29:34;3.67;;;3.67;;
7110;SDS011;3597;42.650;23.386;2023-04-25T11:31:59;5.83;;;5.63;;
7110;SDS011;3597;42.650;23.386;2023-04-25T11:34:26;3.53;;;3.53;;
7110;SDS011;3597;42.650;23.386;2023-04-25T11:36:52;3.00;;;3.00;;
7110;SDS011;3597;42.650;23.386;2023-04-25T11:39:18;2.60;;;2.50;;
7110;SDS011;3597;42.650;23.386;2023-04-25T11:41:44;1.60;;;1.60;;
7110;SDS011;3597;42.650;23.386;2023-04-25T11:44:10;1.90;;;1.90;;
7110;SDS011;3597;42.650;23.386;2023-04-25T11:46:35;2.37;;;2.27;;
7110;SDS011;3597;42.650;23.386;2023-04-25T11:49:00;1.50;;;1.50;;
7110;SDS011;3597;42.650;23.386;2023-04-25T11:51:28;1.50;;;1.50;;
7110;SDS011;3597;42.650;23.386;2023-04-25T11:53:53;4.17;;;1.47;;
7110;SDS011;3597;42.650;23.386;2023-04-25T11:56:18;1.40;;;1.40;;
7110;SDS011;3597;42.650;23.386;2023-04-25T11:58:58;1.97;;;1.97;;
7110;SDS011;3597;42.650;23.386;2023-04-25T12:01:32;1.30;;;1.30;;
7110;SDS011;3597;42.650;23.386;2023-04-25T12:03:58;1.30;;;1.30;;
7110;SDS011;3597;42.650;23.386;2023-04-25T12:06:30;1.40;;;1.40;;
7110;SDS011;3597;42.650;23.386;2023-04-25T12:09:02;2.03;;;2.03;;
7110;SDS011;3597;42.650;23.386;2023-04-25T12:11:32;2.27;;;2.27;;
7110;SDS011;3597;42.650;23.386;2023-04-25T12:14:04;1.70;;;1.70;;
7110;SDS011;3597;42.650;23.386;2023-04-25T12:16:42;1.27;;;1.27;;
7110;SDS011;3597;42.650;23.386;2023-04-25T12:19:14;1.20;;;1.20;;
7110;SDS011;3597;42.650;23.386;2023-04-25T12:21:40;2.40;;;2.40;;
7110;SDS011;3597;42.650;23.386;2023-04-25T12:24:16;1.30;;;1.30;;
7110;SDS011;3597;42.650;23.386;2023-04-25T12:26:58;0.80;;;0.80;;
7110;SDS011;3597;42.650;23.386;2023-04-25T12:29:25;1.10;;;1.10;;
7110;SDS011;3597;42.650;23.386;2023-04-25T12:31:52;1.10;;;1.10;;
7110;SDS011;3597;42.650;23.386;2023-04-25T12:34:19;1.10;;;1.10;;
7110;SDS011;3597;42.650;23.386;2023-04-25T12:36:45;0.90;;;0.90;;
7110;SDS011;3597;42.650;23.386;2023-04-25T12:39:17;0.90;;;0.90;;
7110;SDS011;3597;42.650;23.386;2023-04-25T12:41:45;0.90;;;0.90;;
7110;SDS011;3597;42.650;23.386;2023-04-25T12:44:11;1.10;;;1.10;;
7110;SDS011;3597;42.650;23.386;2023-04-25T12:46:37;0.90;;;0.90;;
7110;SDS011;3597;42.650;23.386;2023-04-25T12:49:03;1.13;;;1.13;;
7110;SDS011;3597;42.650;23.386;2023-04-25T12:51:29;1.30;;;1.30;;
7110;SDS011;3597;42.650;23.386;2023-04-25T12:53:55;1.40;;;1.40;;
7110;SDS011;3597;42.650;23.386;2023-04-25T12:56:20;1.90;;;1.90;;
7110;SDS011;3597;42.650;23.386;2023-04-25T12:58:46;2.10;;;2.10;;
7110;SDS011;3597;42.650;23.386;2023-04-25T13:01:13;1.67;;;1.67;;
7110;SDS011;3597;42.650;23.386;2023-04-25T13:03:38;1.33;;;1.33;;
7110;SDS011;3597;42.650;23.386;2023-04-25T13:06:04;1.20;;;1.20;;
7110;SDS011;3597;42.650;23.386;2023-04-25T13:08:30;1.00;;;1.00;;
7110;SDS011;3597;42.650;23.386;2023-04-25T13:10:55;1.30;;;1.30;;
7110;SDS011;3597;42.650;23.386;2023-04-25T13:13:21;1.10;;;1.10;;
7110;SDS011;3597;42.650;23.386;2023-04-25T13:15:46;1.40;;;1.40;;
7110;SDS011;3597;42.650;23.386;2023-04-25T13:18:12;3.17;;;3.17;;
7110;SDS011;3597;42.650;23.386;2023-04-25T13:20:37;2.33;;;2.33;;
7110;SDS011;3597;42.650;23.386;2023-04-25T13:23:03;1.20;;;1.20;;
7110;SDS011;3597;42.650;23.386;2023-04-25T13:25:28;1.40;;;1.40;;
7110;SDS011;3597;42.650;23.386;2023-04-25T13:27:53;1.17;;;1.17;;
7110;SDS011;3597;42.650;23.386;2023-04-25T13:30:19;1.60;;;1.60;;
7110;SDS011;3597;42.650;23.386;2023-04-25T13:32:44;1.40;;;1.40;;
7110;SDS011;3597;42.650;23.386;2023-04-25T13:35:11;1.73;;;1.73;;
7110;SDS011;3597;42.650;23.386;2023-04-25T13:37:38;1.10;;;1.10;;
7110;SDS011;3597;42.650;23.386;2023-04-25T13:40:05;1.50;;;1.50;;
7110;SDS011;3597;42.650;23.386;2023-04-25T13:42:33;1.40;;;1.20;;
7110;SDS011;3597;42.650;23.386;2023-04-25T13:44:59;1.27;;;1.27;;
7110;SDS011;3597;42.650;23.386;2023-04-25T13:47:25;1.20;;;1.20;;
7110;SDS011;3597;42.650;23.386;2023-04-25T13:49:50;1.17;;;1.17;;
7110;SDS011;3597;42.650;23.386;2023-04-25T13:52:16;0.93;;;0.93;;
7110;SDS011;3597;42.650;23.386;2023-04-25T13:54:41;0.90;;;0.90;;
7110;SDS011;3597;42.650;23.386;2023-04-25T13:57:06;1.00;;;1.00;;
7110;SDS011;3597;42.650;23.386;2023-04-25T13:59:32;0.90;;;0.90;;
7110;SDS011;3597;42.650;23.386;2023-04-25T14:01:57;1.30;;;1.30;;
7110;SDS011;3597;42.650;23.386;2023-04-25T14:04:23;1.60;;;1.50;;
7110;SDS011;3597;42.650;23.386;2023-04-25T14:06:48;1.10;;;1.10;;
7110;SDS011;3597;42.650;23.386;2023-04-25T14:09:13;1.23;;;1.23;;
7110;SDS011;3597;42.650;23.386;2023-04-25T14:11:40;1.20;;;1.07;;
7110;SDS011;3597;42.650;23.386;2023-04-25T14:14:05;1.00;;;1.00;;
7110;SDS011;3597;42.650;23.386;2023-04-25T14:16:30;1.10;;;1.10;;
7110;SDS011;3597;42.650;23.386;2023-04-25T14:18:57;1.30;;;1.30;;
7110;SDS011;3597;42.650;23.386;2023-04-25T14:21:23;1.47;;;1.47;;
7110;SDS011;3597;42.650;23.386;2023-04-25T14:23:48;1.10;;;1.10;;
7110;SDS011;3597;42.650;23.386;2023-04-25T14:26:14;1.10;;;1.10;;
7110;SDS011;3597;42.650;23.386;2023-04-25T14:28:39;1.40;;;1.40;;
7110;SDS011;3597;42.650;23.386;2023-04-25T14:31:04;1.23;;;1.23;;
7110;SDS011;3597;42.650;23.386;2023-04-25T14:33:30;1.63;;;1.63;;
7110;SDS011;3597;42.650;23.386;2023-04-25T14:35:56;2.07;;;2.07;;
7110;SDS011;3597;42.650;23.386;2023-04-25T14:38:21;1.50;;;1.50;;
7110;SDS011;3597;42.650;23.386;2023-04-25T14:40:51;1.40;;;1.37;;
7110;SDS011;3597;42.650;23.386;2023-04-25T14:43:16;1.53;;;1.53;;
7110;SDS011;3597;42.650;23.386;2023-04-25T14:45:42;1.00;;;1.00;;
7110;SDS011;3597;42.650;23.386;2023-04-25T14:48:07;0.93;;;0.93;;
7110;SDS011;3597;42.650;23.386;2023-04-25T14:50:33;1.00;;;1.00;;
7110;SDS011;3597;42.650;23.386;2023-04-25T14:52:58;1.00;;;1.00;;
7110;SDS011;3597;42.650;23.386;2023-04-25T14:55:25;1.00;;;1.00;;
7110;SDS011;3597;42.650;23.386;2023-04-25T14:57:52;1.10;;;1.10;;
7110;SDS011;3597;42.650;23.386;2023-04-25T15:00:18;1.10;;;1.10;;
7110;SDS011;3597;42.650;23.386;2023-04-25T15:02:45;1.10;;;1.10;;
7110;SDS011;3597;42.650;23.386;2023-04-25T15:05:11;1.10;;;1.10;;
7110;SDS011;3597;42.650;23.386;2023-04-25T15:07:38;1.10;;;1.10;;